Time;durP1;ratioP1;P1;durP2;ratioP2;P2;SDS_P1;SDS_P2;PMS_P1;PMS_P2;Temp;Humidity;BMP_temperature;BMP_pressure;BME280_temperature;BME280_humidity;BME280_pressure;Samples;Min_cycle;Max_cycle;Signal;HPM_P1;HPM_P2
2022/01/23 05:01:34;;;;;;;27.83;20.47;;;5.10;99.90;;;;;;5595288;23;20556;-71
2022/01/23 05:06:42;;;;;;;29.10;21.50;;;5.10;99.90;;;;;;5035698;28;20516;-71
2022/01/23 05:09:09;;;;;;;27.13;20.80;;;5.10;99.90;;;;;;5035834;28;20433;-71
2022/01/23 05:11:37;;;;;;;32.53;21.93;;;5.10;99.90;;;;;;5036252;28;20476;-71
2022/01/23 05:14:05;;;;;;;27.80;20.70;;;5.10;99.90;;;;;;5035200;28;20472;-71
2022/01/23 05:16:33;;;;;;;31.00;22.83;;;5.10;99.90;;;;;;5035964;28;20457;-71
2022/01/23 05:19:00;;;;;;;32.23;22.40;;;5.20;99.90;;;;;;5036162;28;20453;-71
2022/01/23 05:21:58;;;;;;;33.50;24.00;;;5.20;99.90;;;;;;5036039;28;20472;-71
2022/01/23 05:24:31;;;;;;;33.50;23.00;;;5.20;99.90;;;;;;5035908;28;20436;-71
2022/01/23 05:27:02;;;;;;;34.87;22.63;;;5.20;99.90;;;;;;5036132;28;20475;-71
2022/01/23 05:29:29;;;;;;;35.03;24.10;;;5.20;99.90;;;;;;5035560;28;20539;-71
2022/01/23 05:31:57;;;;;;;27.73;21.03;;;5.30;99.90;;;;;;5035070;28;21017;-71
2022/01/23 05:34:25;;;;;;;29.10;21.50;;;5.20;99.90;;;;;;5035497;28;20827;-71
2022/01/23 05:36:52;;;;;;;36.63;24.67;;;5.30;99.90;;;;;;5035066;28;20456;-71
2022/01/23 05:39:22;;;;;;;51.13;32.63;;;5.30;99.90;;;;;;5035279;28;20944;-71
2022/01/23 05:41:52;;;;;;;44.17;29.00;;;5.20;99.90;;;;;;5034843;28;21006;-71
2022/01/23 05:44:20;;;;;;;41.40;27.37;;;5.20;99.90;;;;;;5034867;28;20436;-72
2022/01/23 05:46:47;;;;;;;39.90;24.80;;;5.20;99.90;;;;;;5035046;28;20452;-72
2022/01/23 05:49:15;;;;;;;35.17;22.10;;;5.20;99.90;;;;;;5034652;28;20453;-71
2022/01/23 05:51:42;;;;;;;34.87;25.80;;;5.20;99.90;;;;;;5034394;28;20476;-71
2022/01/23 05:54:09;;;;;;;32.37;23.77;;;5.10;99.90;;;;;;5034721;28;20542;-71
2022/01/23 05:56:35;;;;;;;30.83;24.50;;;5.10;99.90;;;;;;5034518;28;20618;-72
2022/01/23 05:59:02;;;;;;;33.37;22.80;;;5.10;99.90;;;;;;5034689;28;20456;-72
2022/01/23 06:01:29;;;;;;;31.70;23.07;;;5.20;99.90;;;;;;5034430;28;21005;-71
2022/01/23 06:03:56;;;;;;;34.57;22.57;;;5.10;99.90;;;;;;5036573;28;20500;-71
2022/01/23 06:06:24;;;;;;;29.97;22.57;;;5.10;99.90;;;;;;5035013;28;20456;-71
2022/01/23 06:08:50;;;;;;;35.10;23.97;;;5.10;99.90;;;;;;5034652;28;20460;-71
2022/01/23 06:11:17;;;;;;;32.60;22.13;;;5.10;99.90;;;;;;5034026;28;20481;-71
2022/01/23 06:13:44;;;;;;;33.57;23.30;;;5.10;99.90;;;;;;5035122;28;20479;-72
2022/01/23 06:16:10;;;;;;;38.43;23.23;;;5.10;99.90;;;;;;5034634;28;20797;-73
2022/01/23 06:18:40;;;;;;;35.00;23.70;;;5.10;99.90;;;;;;5034719;28;20802;-72
2022/01/23 06:21:07;;;;;;;34.63;23.50;;;5.10;99.90;;;;;;5034877;28;20500;-71
2022/01/23 06:23:35;;;;;;;32.63;23.10;;;5.10;99.90;;;;;;5035218;28;20803;-71
2022/01/23 06:26:02;;;;;;;38.37;24.00;;;5.10;99.90;;;;;;5033943;28;20939;-71
2022/01/23 06:28:41;;;;;;;31.70;21.90;;;5.20;99.90;;;;;;5034190;28;20452;-71
2022/01/23 06:31:08;;;;;;;31.83;22.20;;;5.20;99.90;;;;;;5034132;28;20549;-71
2022/01/23 06:33:35;;;;;;;37.30;22.10;;;5.20;99.90;;;;;;5034683;28;20477;-71
2022/01/23 06:36:02;;;;;;;32.70;22.27;;;5.20;99.90;;;;;;5035264;28;20456;-71
2022/01/23 06:38:29;;;;;;;34.40;22.80;;;5.20;99.90;;;;;;5035356;28;20993;-71
2022/01/23 06:40:57;;;;;;;30.63;22.77;;;5.20;99.90;;;;;;5034159;28;20498;-71
2022/01/23 06:43:24;;;;;;;36.43;23.40;;;5.20;99.90;;;;;;5033973;28;20448;-71
2022/01/23 06:45:51;;;;;;;32.10;23.10;;;5.20;99.90;;;;;;5033964;28;20630;-71
2022/01/23 06:48:17;;;;;;;33.03;24.23;;;5.20;99.90;;;;;;5033658;28;20939;-71
2022/01/23 06:50:44;;;;;;;32.87;23.80;;;5.20;99.90;;;;;;5033991;28;20477;-72
2022/01/23 06:53:11;;;;;;;31.30;24.13;;;5.20;99.90;;;;;;5033714;28;20454;-71
2022/01/23 06:55:37;;;;;;;36.63;23.27;;;5.20;99.90;;;;;;5033525;28;20459;-71
2022/01/23 06:58:05;;;;;;;38.53;24.60;;;5.20;99.90;;;;;;5034513;28;20452;-73
2022/01/23 07:00:33;;;;;;;32.23;21.90;;;5.10;99.90;;;;;;5033529;28;20982;-72
2022/01/23 07:03:00;;;;;;;33.57;24.30;;;5.10;99.90;;;;;;5033583;28;20919;-71
2022/01/23 07:05:26;;;;;;;35.77;24.40;;;5.20;99.90;;;;;;5034040;28;20460;-71
2022/01/23 07:07:53;;;;;;;37.07;23.90;;;5.20;99.90;;;;;;5033947;28;20935;-71
2022/01/23 07:10:21;;;;;;;33.43;23.27;;;5.20;99.90;;;;;;5033768;28;20452;-71
2022/01/23 07:12:48;;;;;;;33.53;23.70;;;5.20;99.90;;;;;;5033645;28;20943;-71
2022/01/23 07:15:16;;;;;;;31.57;22.00;;;5.20;99.90;;;;;;5033574;28;20503;-71
2022/01/23 07:17:44;;;;;;;28.70;22.13;;;5.20;99.90;;;;;;5033692;28;20452;-72
2022/01/23 07:20:11;;;;;;;35.77;24.50;;;5.20;99.90;;;;;;5033624;28;20464;-72
2022/01/23 07:22:38;;;;;;;34.60;23.30;;;5.20;99.90;;;;;;5036937;28;20510;-71
2022/01/23 07:25:06;;;;;;;32.87;23.60;;;5.20;99.90;;;;;;5037490;28;20475;-71
2022/01/23 07:27:37;;;;;;;31.87;22.23;;;5.20;99.90;;;;;;5037581;28;20457;-71
2022/01/23 07:30:06;;;;;;;33.70;23.03;;;5.20;99.90;;;;;;5037674;28;20437;-71
2022/01/23 07:32:34;;;;;;;34.63;23.60;;;5.20;99.90;;;;;;5037226;28;21033;-71
2022/01/23 07:35:01;;;;;;;38.07;23.60;;;5.20;99.90;;;;;;5037302;28;20472;-71
2022/01/23 07:37:28;;;;;;;35.13;24.43;;;5.20;99.90;;;;;;5037047;28;20483;-71
2022/01/23 07:39:54;;;;;;;33.53;24.30;;;5.20;99.90;;;;;;5037215;28;20452;-71
2022/01/23 07:42:21;;;;;;;32.27;24.47;;;5.20;99.90;;;;;;5036948;28;21002;-71
2022/01/23 07:44:48;;;;;;;36.03;24.40;;;5.20;99.90;;;;;;5037796;28;20463;-71
2022/01/23 07:47:15;;;;;;;37.20;24.67;;;5.10;99.90;;;;;;5037043;28;20464;-71
2022/01/23 07:49:43;;;;;;;32.57;22.10;;;5.20;99.90;;;;;;5037102;28;20456;-71
2022/01/23 07:52:10;;;;;;;35.77;25.00;;;5.20;99.90;;;;;;5036736;28;20521;-71
2022/01/23 07:54:38;;;;;;;35.90;25.77;;;5.10;99.90;;;;;;5036542;28;20483;-71
2022/01/23 07:57:05;;;;;;;39.50;26.03;;;5.20;99.90;;;;;;5036608;28;20931;-70
2022/01/23 07:59:34;;;;;;;33.57;25.57;;;5.20;99.90;;;;;;5036850;28;20797;-70
2022/01/23 08:02:01;;;;;;;35.10;24.80;;;5.20;99.90;;;;;;5036572;28;20516;-71
2022/01/23 08:04:27;;;;;;;36.17;24.33;;;5.30;99.90;;;;;;5037195;28;20939;-71
2022/01/23 08:07:08;;;;;;;31.93;23.23;;;5.30;99.90;;;;;;5043337;28;20456;-71
2022/01/23 08:09:35;;;;;;;32.53;23.53;;;5.40;99.90;;;;;;5038776;28;20441;-71
2022/01/23 08:12:03;;;;;;;32.70;24.60;;;5.40;99.90;;;;;;5038764;28;20473;-71
2022/01/23 08:14:30;;;;;;;37.13;24.30;;;5.40;99.90;;;;;;5038746;28;20480;-71
2022/01/23 08:16:56;;;;;;;39.10;24.87;;;5.40;99.90;;;;;;5037017;28;20468;-71
2022/01/23 08:19:23;;;;;;;36.13;24.67;;;5.50;99.90;;;;;;5036540;28;20463;-71
2022/01/23 08:21:50;;;;;;;33.50;24.53;;;5.50;99.90;;;;;;5036310;28;20476;-71
2022/01/23 08:24:18;;;;;;;36.70;25.80;;;5.60;99.90;;;;;;5036534;28;20437;-71
2022/01/23 08:26:44;;;;;;;30.67;22.63;;;5.60;99.90;;;;;;5036303;28;20812;-71
2022/01/23 08:29:11;;;;;;;34.13;23.70;;;5.70;99.90;;;;;;5036228;28;20456;-73
2022/01/23 08:31:38;;;;;;;34.03;23.33;;;5.80;99.90;;;;;;5035664;28;21002;-71
2022/01/23 08:34:05;;;;;;;34.93;25.20;;;5.70;99.90;;;;;;5035879;28;20479;-70
2022/01/23 08:36:33;;;;;;;32.67;23.33;;;5.60;99.90;;;;;;5036191;28;20452;-71
2022/01/23 08:39:01;;;;;;;36.77;26.60;;;5.60;99.90;;;;;;5036129;28;20503;-71
2022/01/23 08:44:13;;;;;;;34.77;25.03;;;5.80;99.90;;;;;;5036231;28;20773;-70
2022/01/23 08:46:40;;;;;;;33.60;24.87;;;5.90;99.90;;;;;;5035983;28;20452;-71
2022/01/23 08:49:07;;;;;;;32.33;25.03;;;5.90;99.90;;;;;;5036156;28;20488;-71
2022/01/23 08:51:34;;;;;;;31.33;22.73;;;6.00;99.90;;;;;;5036099;28;20498;-71
2022/01/23 08:54:02;;;;;;;31.87;23.17;;;6.00;99.90;;;;;;5035845;28;20472;-70
2022/01/23 08:56:31;;;;;;;32.17;24.40;;;6.00;99.90;;;;;;5035660;28;20849;-72
2022/01/23 08:58:57;;;;;;;33.33;24.03;;;6.10;99.90;;;;;;5035754;28;20452;-70
2022/01/23 09:01:25;;;;;;;31.97;23.70;;;6.20;99.90;;;;;;5035336;28;20480;-70
2022/01/23 09:03:52;;;;;;;31.10;24.60;;;6.30;99.90;;;;;;5035824;28;20452;-70
2022/01/23 09:06:19;;;;;;;30.43;23.87;;;6.30;99.90;;;;;;5035766;28;20970;-70
2022/01/23 09:08:46;;;;;;;30.03;22.13;;;6.40;99.90;;;;;;5035741;28;20482;-71
2022/01/23 09:11:24;;;;;;;29.30;22.00;;;6.50;99.90;;;;;;5035519;28;20583;-70
2022/01/23 09:14:06;;;;;;;28.00;20.50;;;6.60;99.90;;;;;;5035709;28;20446;-71
2022/01/23 09:16:33;;;;;;;27.90;21.93;;;6.70;99.90;;;;;;5035612;28;20788;-71
2022/01/23 09:19:00;;;;;;;29.60;21.80;;;6.90;99.90;;;;;;5035515;28;20858;-71
2022/01/23 09:21:26;;;;;;;28.50;22.37;;;6.90;99.90;;;;;;5035326;28;20495;-71
2022/01/23 09:23:54;;;;;;;35.10;24.60;;;7.10;99.90;;;;;;5035733;28;20468;-71
2022/01/23 09:26:22;;;;;;;33.10;25.30;;;7.10;99.90;;;;;;5035634;28;20457;-71
2022/01/23 09:28:50;;;;;;;30.93;23.83;;;7.10;99.90;;;;;;5035405;28;20464;-70
2022/01/23 09:31:27;;;;;;;32.03;23.40;;;7.20;99.90;;;;;;5034874;28;20471;-70
2022/01/23 09:33:53;;;;;;;29.57;23.67;;;7.10;99.90;;;;;;5035162;28;20436;-70
2022/01/23 09:36:20;;;;;;;31.43;22.17;;;7.10;99.90;;;;;;5034758;28;20456;-70
2022/01/23 09:38:47;;;;;;;29.57;21.77;;;7.20;99.90;;;;;;5035000;28;20481;-70
2022/01/23 09:41:17;;;;;;;28.80;21.40;;;7.30;99.90;;;;;;5034898;28;20472;-70
2022/01/23 09:43:46;;;;;;;28.67;23.87;;;7.30;99.90;;;;;;5034307;28;20909;-70
2022/01/23 09:46:14;;;;;;;30.87;22.30;;;7.20;99.90;;;;;;5034597;28;20444;-70
2022/01/23 09:48:43;;;;;;;26.80;21.00;;;7.30;99.90;;;;;;5034594;28;20465;-71
2022/01/23 09:51:11;;;;;;;27.60;21.90;;;7.30;99.90;;;;;;5034618;28;20479;-71
2022/01/23 09:53:40;;;;;;;30.47;22.60;;;7.40;99.90;;;;;;5034624;28;20875;-71
2022/01/23 09:56:09;;;;;;;27.70;21.30;;;7.30;99.90;;;;;;5034147;28;20516;-72
2022/01/23 09:58:39;;;;;;;28.47;23.30;;;7.30;99.90;;;;;;5034272;28;20966;-70
2022/01/23 10:01:05;;;;;;;30.40;22.67;;;7.30;99.90;;;;;;5034856;28;20508;-70
2022/01/23 10:03:32;;;;;;;31.17;23.50;;;7.30;99.90;;;;;;5034331;28;20457;-70
2022/01/23 10:06:00;;;;;;;29.20;21.83;;;7.30;99.90;;;;;;5033953;28;20940;-71
2022/01/23 10:08:29;;;;;;;26.10;21.90;;;7.30;99.90;;;;;;5034140;28;20453;-71
2022/01/23 10:10:56;;;;;;;24.97;20.23;;;7.40;99.90;;;;;;5033789;28;20468;-71
2022/01/23 10:13:25;;;;;;;26.33;21.57;;;7.40;99.90;;;;;;5034204;28;21010;-71
2022/01/23 10:15:53;;;;;;;26.30;20.43;;;7.40;99.90;;;;;;5033828;28;20481;-71
2022/01/23 10:18:20;;;;;;;24.67;20.80;;;7.40;99.90;;;;;;5034117;28;20475;-71
2022/01/23 10:20:47;;;;;;;25.20;19.07;;;7.30;99.90;;;;;;5033812;28;20483;-71
2022/01/23 10:23:16;;;;;;;28.27;20.37;;;7.30;99.90;;;;;;5033738;28;20793;-71
2022/01/23 10:25:44;;;;;;;25.60;21.40;;;7.40;99.90;;;;;;5034035;28;21050;-70
2022/01/23 10:28:14;;;;;;;24.93;20.40;;;7.50;99.90;;;;;;5034004;28;20551;-70
2022/01/23 10:30:45;;;;;;;21.50;17.60;;;7.50;99.90;;;;;;5034001;28;20476;-70
2022/01/23 10:33:15;;;;;;;22.43;17.80;;;7.40;99.90;;;;;;5034300;28;20442;-70
2022/01/23 10:36:00;;;;;;;25.17;20.63;;;7.40;99.90;;;;;;5033716;28;20995;-70
2022/01/23 10:38:30;;;;;;;25.30;19.80;;;7.30;99.90;;;;;;5034088;28;20444;-70
2022/01/23 10:41:07;;;;;;;23.50;18.50;;;7.30;99.90;;;;;;5034276;28;20476;-71
2022/01/23 10:49:03;;;;;;;21.23;17.60;;;7.60;99.90;;;;;;5035055;28;20503;-70
2022/01/23 10:51:34;;;;;;;19.00;16.80;;;7.80;99.90;;;;;;5035300;28;20480;-70
2022/01/23 10:54:07;;;;;;;25.67;19.83;;;7.90;99.90;;;;;;5036773;28;20487;-70
2022/01/23 10:56:37;;;;;;;20.60;18.00;;;8.10;99.90;;;;;;5038152;28;20853;-71
2022/01/23 10:59:07;;;;;;;20.30;17.30;;;8.20;99.90;;;;;;5039155;28;20442;-70
2022/01/23 11:01:34;;;;;;;19.63;17.00;;;8.20;99.90;;;;;;5038715;28;20857;-70
2022/01/23 11:04:14;;;;;;;23.20;18.87;;;8.10;99.90;;;;;;5038098;28;20455;-70
2022/01/23 11:06:55;;;;;;;23.10;18.90;;;8.10;99.90;;;;;;5038098;28;20440;-70
2022/01/23 11:09:29;;;;;;;23.73;18.07;;;8.20;99.90;;;;;;5037996;28;20532;-70
2022/01/23 11:12:02;;;;;;;22.17;19.43;;;8.20;99.90;;;;;;5037823;28;20479;-70
2022/01/23 11:17:24;;;;;;;26.20;19.13;;;8.50;99.90;;;;;;5037488;28;20520;-70
2022/01/23 11:19:55;;;;;;;23.57;18.37;;;8.50;99.90;;;;;;5037670;28;20538;-70
2022/01/23 11:22:24;;;;;;;21.10;17.43;;;8.70;99.90;;;;;;5037383;28;20476;-70
2022/01/23 11:24:56;;;;;;;21.60;18.63;;;8.70;99.90;;;;;;5037391;28;20443;-70
2022/01/23 11:27:23;;;;;;;21.60;18.73;;;8.80;99.90;;;;;;5037230;28;20443;-70
2022/01/23 11:29:58;;;;;;;24.57;19.03;;;8.80;99.90;;;;;;5037509;28;20959;-70
2022/01/23 11:32:29;;;;;;;22.13;18.00;;;8.80;99.90;;;;;;5037471;28;20812;-70
2022/01/23 11:35:04;;;;;;;21.57;17.60;;;8.70;99.90;;;;;;5037389;28;20557;-70
2022/01/23 11:37:31;;;;;;;17.93;16.03;;;8.80;99.90;;;;;;5038081;28;20444;-70
2022/01/23 11:40:05;;;;;;;19.90;17.80;;;8.80;99.90;;;;;;5036802;28;20507;-70
2022/01/23 11:51:21;;;;;;;14.37;12.93;;;8.80;99.90;;;;;;5036910;28;20459;-70
2022/01/23 11:53:54;;;;;;;16.47;13.60;;;8.70;99.90;;;;;;5037082;28;20905;-70
2022/01/23 11:56:44;;;;;;;14.17;11.70;;;8.70;99.90;;;;;;5036923;28;20473;-70
2022/01/23 11:59:18;;;;;;;14.90;12.60;;;8.80;99.90;;;;;;5036572;28;20445;-71
2022/01/23 12:01:51;;;;;;;12.87;11.30;;;8.80;99.90;;;;;;5036326;28;21004;-70
2022/01/23 12:04:20;;;;;;;13.00;11.63;;;8.70;99.90;;;;;;5036569;28;20477;-70
2022/01/23 12:07:20;;;;;;;13.40;11.80;;;8.70;99.90;;;;;;5036090;28;20448;-70
2022/01/23 12:10:11;;;;;;;13.20;11.80;;;8.90;99.90;;;;;;5036278;28;20455;-70
2022/01/23 12:12:42;;;;;;;14.90;13.40;;;8.90;99.90;;;;;;5037022;28;20559;-70
2022/01/23 12:18:14;;;;;;;14.73;13.23;;;9.00;99.90;;;;;;5036617;28;20421;-70
2022/01/23 12:20:42;;;;;;;14.40;12.70;;;9.10;99.90;;;;;;5035940;28;20918;-70
2022/01/23 12:23:09;;;;;;;9.70;8.80;;;8.80;99.90;;;;;;5036211;28;20860;-70
2022/01/23 12:25:42;;;;;;;12.97;11.63;;;8.90;99.90;;;;;;5036929;28;20457;-70
2022/01/23 12:28:22;;;;;;;11.73;10.20;;;8.90;99.90;;;;;;5036353;28;20450;-70
2022/01/23 12:30:54;;;;;;;15.10;11.70;;;8.80;99.90;;;;;;5037420;28;20477;-70
2022/01/23 12:33:46;;;;;;;11.87;10.67;;;8.80;99.90;;;;;;5036824;28;20460;-70
2022/01/23 12:36:31;;;;;;;10.87;9.80;;;8.90;99.90;;;;;;5035961;28;20495;-70
2022/01/23 12:39:15;;;;;;;2.57;2.47;;;8.80;99.90;;;;;;5036229;28;20445;-70
2022/01/23 12:41:54;;;;;;;3.80;2.37;;;8.70;99.90;;;;;;5036518;28;20507;-71
2022/01/23 12:44:35;;;;;;;7.60;5.20;;;8.70;99.90;;;;;;5035997;28;20942;-70
2022/01/23 12:47:03;;;;;;;10.50;7.20;;;8.60;99.90;;;;;;5036773;28;20434;-70
2022/01/23 12:49:31;;;;;;;11.10;9.90;;;8.70;99.90;;;;;;5035903;28;20456;-70
2022/01/23 12:52:15;;;;;;;9.67;8.67;;;8.70;99.90;;;;;;5036128;28;20482;-70
2022/01/23 12:54:59;;;;;;;8.00;7.20;;;8.70;99.90;;;;;;5035433;28;20976;-71
2022/01/23 12:57:35;;;;;;;12.93;10.30;;;8.60;99.90;;;;;;5036285;28;20456;-71
2022/01/23 13:00:09;;;;;;;9.97;8.47;;;8.50;99.90;;;;;;5036574;28;20449;-70
2022/01/23 13:02:42;;;;;;;6.90;6.20;;;8.50;99.90;;;;;;5036653;28;20974;-71
2022/01/23 13:05:10;;;;;;;7.83;5.90;;;8.50;99.90;;;;;;5036628;28;20438;-70
2022/01/23 13:07:43;;;;;;;5.93;5.30;;;8.60;99.90;;;;;;5036251;28;20457;-71
2022/01/23 13:10:26;;;;;;;5.83;5.33;;;8.70;99.90;;;;;;5036259;28;20530;-71
2022/01/23 13:13:05;;;;;;;5.87;5.37;;;9.00;99.90;;;;;;5035590;28;20438;-71
2022/01/23 13:16:01;;;;;;;5.50;4.90;;;9.10;99.90;;;;;;5035664;28;20576;-71
2022/01/23 13:32:30;;;;;;;6.40;5.80;;;9.70;99.90;;;;;;5031294;28;20511;-70
2022/01/23 13:35:04;;;;;;;7.03;6.43;;;9.50;99.90;;;;;;5035848;28;20484;-69
2022/01/23 13:37:34;;;;;;;5.90;5.40;;;9.30;99.90;;;;;;5037546;28;20518;-69
2022/01/23 13:40:05;;;;;;;6.50;5.90;;;8.90;99.90;;;;;;5036378;28;20432;-69
2022/01/23 13:42:57;;;;;;;5.40;4.90;;;8.80;99.90;;;;;;5035816;28;20481;-70
2022/01/23 13:59:36;;;;;;;4.83;4.40;;;8.20;99.90;;;;;;5038758;28;20467;-70
2022/01/23 14:04:54;;;;;;;5.67;5.17;;;8.20;99.90;;;;;;5043326;28;20848;-70
2022/01/23 14:07:24;;;;;;;8.80;7.40;;;8.10;99.90;;;;;;5044202;28;20426;-69
2022/01/23 14:09:52;;;;;;;8.03;6.77;;;7.90;99.90;;;;;;5036061;28;20438;-70
2022/01/23 14:12:21;;;;;;;5.50;5.00;;;8.00;99.90;;;;;;5034633;28;20471;-70
2022/01/23 14:14:54;;;;;;;5.80;5.30;;;8.00;99.90;;;;;;5034431;28;20457;-70
2022/01/23 14:17:23;;;;;;;6.10;5.50;;;7.80;99.90;;;;;;5035636;28;20883;-71
2022/01/23 14:20:05;;;;;;;5.40;4.90;;;7.80;99.90;;;;;;5034417;28;20460;-71
2022/01/23 14:22:34;;;;;;;5.13;4.10;;;7.80;99.90;;;;;;5034505;28;20480;-71
2022/01/23 14:25:09;;;;;;;5.10;3.87;;;7.80;99.90;;;;;;5034162;28;20459;-70
2022/01/23 14:27:36;;;;;;;4.70;3.93;;;7.90;99.90;;;;;;5035027;28;20437;-71
2022/01/23 14:30:06;;;;;;;4.30;3.93;;;7.80;99.90;;;;;;5034589;28;20452;-71
2022/01/23 14:32:41;;;;;;;4.03;3.73;;;7.80;99.90;;;;;;5034879;28;20472;-70
2022/01/23 14:35:12;;;;;;;5.40;4.90;;;7.80;99.90;;;;;;5035562;28;20935;-69
2022/01/23 14:37:39;;;;;;;4.00;3.60;;;7.80;99.90;;;;;;5037948;28;20468;-71
2022/01/23 14:40:18;;;;;;;6.13;4.40;;;7.60;99.90;;;;;;5039113;28;20551;-72
2022/01/23 14:43:01;;;;;;;3.90;3.60;;;7.60;99.90;;;;;;5038052;28;20444;-71
2022/01/23 14:45:29;;;;;;;5.70;5.20;;;7.50;99.90;;;;;;5038431;28;20448;-71
2022/01/23 14:47:56;;;;;;;6.17;5.47;;;7.40;99.90;;;;;;5035908;28;20944;-72
2022/01/23 14:50:26;;;;;;;7.17;5.60;;;7.40;99.90;;;;;;5038031;28;20464;-71
2022/01/23 14:52:54;;;;;;;6.90;6.20;;;7.50;99.90;;;;;;5037569;28;20566;-71
2022/01/23 14:55:21;;;;;;;5.33;4.90;;;7.50;99.90;;;;;;5038784;28;20916;-70
2022/01/23 14:57:48;;;;;;;6.40;5.53;;;7.30;99.90;;;;;;5036547;28;20457;-70
2022/01/23 15:00:16;;;;;;;5.40;4.90;;;7.20;99.90;;;;;;5037838;28;20525;-70
2022/01/23 15:02:43;;;;;;;5.87;5.00;;;7.20;99.90;;;;;;5035037;28;20448;-70
2022/01/23 15:05:10;;;;;;;6.43;5.83;;;7.20;99.90;;;;;;5034392;28;20977;-70
2022/01/23 15:07:42;;;;;;;6.57;5.97;;;7.20;99.90;;;;;;5035602;28;20456;-70
2022/01/23 15:10:10;;;;;;;8.50;6.83;;;7.20;99.90;;;;;;5036415;28;20433;-70
2022/01/23 15:12:38;;;;;;;7.83;7.07;;;7.20;99.90;;;;;;5034393;28;20477;-70
2022/01/23 15:15:07;;;;;;;6.23;5.63;;;7.30;99.90;;;;;;5035550;28;20920;-69
2022/01/23 15:17:34;;;;;;;7.17;5.80;;;7.30;99.90;;;;;;5034708;28;21018;-69
2022/01/23 15:20:01;;;;;;;8.00;7.20;;;7.30;99.90;;;;;;5034482;28;20463;-70
2022/01/23 15:22:28;;;;;;;7.37;6.50;;;7.20;99.90;;;;;;5034282;28;20833;-70
2022/01/23 15:24:56;;;;;;;7.83;7.03;;;7.30;99.90;;;;;;5035146;28;20461;-70
2022/01/23 15:27:23;;;;;;;7.43;6.60;;;7.20;99.90;;;;;;5036278;28;20450;-70
2022/01/23 15:29:50;;;;;;;6.43;5.50;;;7.30;99.90;;;;;;5036707;28;20807;-70
2022/01/23 15:32:17;;;;;;;5.50;4.73;;;7.10;99.90;;;;;;5035337;28;20476;-69
2022/01/23 15:34:44;;;;;;;4.20;3.90;;;7.10;99.90;;;;;;5035328;28;20452;-70
2022/01/23 15:37:13;;;;;;;5.63;3.87;;;7.10;99.90;;;;;;5036909;28;20502;-70
2022/01/23 15:39:40;;;;;;;4.20;3.90;;;7.00;99.90;;;;;;5035557;28;20458;-70
2022/01/23 15:42:09;;;;;;;4.50;4.00;;;6.90;99.90;;;;;;5035054;28;20527;-70
2022/01/23 15:44:36;;;;;;;5.00;4.50;;;6.90;99.90;;;;;;5037008;28;20459;-70
2022/01/23 15:47:04;;;;;;;4.37;3.97;;;6.80;99.90;;;;;;5036944;28;20444;-70
2022/01/23 15:49:31;;;;;;;4.57;4.17;;;6.90;99.90;;;;;;5037458;28;20459;-69
2022/01/23 15:51:58;;;;;;;6.77;5.17;;;6.90;99.90;;;;;;5036905;28;21001;-70
2022/01/23 15:54:24;;;;;;;7.87;6.17;;;6.90;99.90;;;;;;5036987;28;20452;-70
2022/01/23 15:56:52;;;;;;;4.43;4.03;;;6.90;99.90;;;;;;5036738;28;20480;-70
2022/01/23 15:59:20;;;;;;;7.87;4.73;;;6.90;99.90;;;;;;5036397;28;20456;-70
2022/01/23 16:01:49;;;;;;;4.90;4.30;;;6.90;99.90;;;;;;5036388;28;20999;-71
2022/01/23 16:04:17;;;;;;;3.83;3.53;;;6.90;99.90;;;;;;5037252;28;20791;-70
2022/01/23 16:06:44;;;;;;;4.60;4.30;;;6.90;99.90;;;;;;5037583;28;20452;-70
2022/01/23 16:09:11;;;;;;;4.50;3.60;;;6.80;99.90;;;;;;5037183;28;20440;-70
2022/01/23 16:11:38;;;;;;;4.40;4.07;;;6.80;99.90;;;;;;5036872;28;20545;-71
2022/01/23 16:14:04;;;;;;;3.10;2.90;;;6.80;99.90;;;;;;5036669;28;20481;-70
2022/01/23 16:16:33;;;;;;;3.70;3.40;;;6.70;99.90;;;;;;5036470;28;20849;-70
2022/01/23 16:19:00;;;;;;;3.53;3.27;;;6.60;99.90;;;;;;5037037;28;20461;-71
2022/01/23 16:21:27;;;;;;;4.00;3.60;;;6.60;99.90;;;;;;5037193;28;20472;-70
2022/01/23 16:23:55;;;;;;;3.40;3.20;;;6.60;99.90;;;;;;5038118;28;20936;-70
2022/01/23 16:26:22;;;;;;;3.80;3.50;;;6.50;99.90;;;;;;5038027;28;20452;-70
2022/01/23 16:28:49;;;;;;;3.80;3.50;;;6.50;99.90;;;;;;5036862;28;20457;-70
2022/01/23 16:31:16;;;;;;;3.60;3.40;;;6.40;99.90;;;;;;5036349;28;20484;-70
2022/01/23 16:33:44;;;;;;;3.90;3.70;;;6.40;99.90;;;;;;5036160;28;20452;-71
2022/01/23 16:36:10;;;;;;;4.20;3.90;;;6.40;99.90;;;;;;5036422;28;20939;-72
2022/01/23 16:38:38;;;;;;;4.93;4.50;;;6.40;99.90;;;;;;5036257;28;20439;-71
2022/01/23 16:41:05;;;;;;;4.23;3.70;;;6.40;99.90;;;;;;5036802;28;20481;-71
2022/01/23 16:43:32;;;;;;;4.10;3.80;;;6.40;99.90;;;;;;5036096;28;20464;-71
2022/01/23 16:46:01;;;;;;;3.70;3.23;;;6.40;99.90;;;;;;5036287;28;20452;-71
2022/01/23 16:48:28;;;;;;;4.77;4.00;;;6.40;99.90;;;;;;5035873;28;20456;-71
2022/01/23 16:50:58;;;;;;;4.40;4.00;;;6.40;99.90;;;;;;5035979;28;20468;-71
2022/01/23 16:53:25;;;;;;;4.13;3.83;;;6.40;99.90;;;;;;5035023;28;20432;-71
2022/01/23 16:55:56;;;;;;;4.17;3.87;;;6.30;99.90;;;;;;5036464;28;20460;-70
2022/01/23 16:58:23;;;;;;;4.27;3.90;;;6.30;99.90;;;;;;5035658;28;20460;-70
2022/01/23 17:00:50;;;;;;;8.80;6.93;;;6.30;99.90;;;;;;5035820;28;20488;-71
2022/01/23 17:03:17;;;;;;;5.10;4.60;;;6.30;99.90;;;;;;5035598;28;20452;-69
2022/01/23 17:05:45;;;;;;;7.20;6.07;;;6.40;99.90;;;;;;5035286;28;20947;-71
2022/01/23 17:08:14;;;;;;;4.83;4.43;;;6.40;99.90;;;;;;5035455;28;20788;-71
2022/01/23 17:10:41;;;;;;;4.43;4.13;;;6.40;99.90;;;;;;5035358;28;20480;-71
2022/01/23 17:13:08;;;;;;;5.10;4.60;;;6.40;99.90;;;;;;5035590;28;20472;-71
2022/01/23 17:15:35;;;;;;;4.40;4.00;;;6.40;99.90;;;;;;5035552;28;20452;-70
2022/01/23 17:18:01;;;;;;;4.07;3.77;;;6.40;99.90;;;;;;5035365;28;21007;-70
2022/01/23 17:20:28;;;;;;;2.93;2.73;;;6.40;99.90;;;;;;5034795;28;20464;-71
2022/01/23 17:22:55;;;;;;;3.73;3.40;;;6.40;99.90;;;;;;5035211;28;20943;-70
2022/01/23 17:25:23;;;;;;;3.63;3.30;;;6.40;99.90;;;;;;5035339;28;20452;-71
2022/01/23 17:27:50;;;;;;;4.30;4.00;;;6.40;99.90;;;;;;5035135;28;20843;-71
2022/01/23 17:30:19;;;;;;;4.10;3.80;;;6.40;99.90;;;;;;5035267;28;20463;-71
2022/01/23 17:32:45;;;;;;;3.83;3.43;;;6.40;99.90;;;;;;5035088;28;20460;-71
2022/01/23 17:35:12;;;;;;;7.37;4.17;;;6.40;99.90;;;;;;5034658;28;20857;-70
2022/01/23 17:37:40;;;;;;;4.47;4.07;;;6.30;99.90;;;;;;5034813;28;20499;-71
2022/01/23 17:40:09;;;;;;;4.37;4.00;;;6.40;99.90;;;;;;5034997;28;20452;-70
2022/01/23 17:42:37;;;;;;;4.60;4.20;;;6.40;99.90;;;;;;5034800;28;20468;-70
2022/01/23 17:45:07;;;;;;;4.17;3.87;;;6.30;99.90;;;;;;5035039;28;20441;-70
2022/01/23 17:47:55;;;;;;;6.03;3.83;;;6.30;99.90;;;;;;5035293;28;20456;-70
2022/01/23 17:50:28;;;;;;;4.67;4.27;;;6.30;99.90;;;;;;5034077;28;20487;-70
2022/01/23 17:52:55;;;;;;;5.10;4.70;;;6.30;99.90;;;;;;5034817;28;20440;-71
2022/01/23 17:55:22;;;;;;;6.43;4.97;;;6.30;99.90;;;;;;5035968;28;20448;-70
2022/01/23 17:57:50;;;;;;;4.97;4.47;;;6.30;99.90;;;;;;5035356;28;20483;-71
2022/01/23 18:00:20;;;;;;;5.70;4.90;;;6.30;99.90;;;;;;5034869;28;20455;-71
2022/01/23 18:02:49;;;;;;;5.53;4.80;;;6.30;99.90;;;;;;5034583;28;20853;-71
2022/01/23 18:05:15;;;;;;;5.00;4.60;;;6.30;99.90;;;;;;5034236;28;21005;-71
2022/01/23 18:07:42;;;;;;;4.47;4.03;;;6.30;99.90;;;;;;5034547;28;20436;-71
2022/01/23 18:10:10;;;;;;;4.57;4.17;;;6.20;99.90;;;;;;5034203;28;20483;-71
2022/01/23 18:12:38;;;;;;;4.57;4.13;;;6.20;99.90;;;;;;5034320;28;20472;-71
2022/01/23 18:15:07;;;;;;;5.70;5.20;;;6.20;99.90;;;;;;5034524;28;20551;-71
2022/01/23 18:17:34;;;;;;;5.60;5.07;;;6.10;99.90;;;;;;5034518;28;20476;-72
2022/01/23 18:20:01;;;;;;;5.40;4.40;;;6.10;99.90;;;;;;5034512;28;20459;-71
2022/01/23 18:22:29;;;;;;;5.50;4.90;;;6.10;99.90;;;;;;5033912;28;20476;-71
2022/01/23 18:24:56;;;;;;;24.83;18.07;;;6.10;99.90;;;;;;5034156;28;20456;-71
2022/01/23 18:27:23;;;;;;;5.80;5.20;;;6.10;99.90;;;;;;5034289;28;20432;-71
2022/01/23 18:29:50;;;;;;;5.63;5.10;;;6.00;99.90;;;;;;5033778;28;20547;-72
2022/01/23 18:32:18;;;;;;;5.77;5.17;;;6.00;99.90;;;;;;5034558;28;20475;-71
2022/01/23 18:34:45;;;;;;;6.73;6.07;;;6.00;99.90;;;;;;5034445;28;20448;-71
2022/01/23 18:37:14;;;;;;;5.20;4.67;;;6.00;99.90;;;;;;5034418;28;20480;-72
2022/01/23 18:39:41;;;;;;;4.77;4.37;;;6.10;99.90;;;;;;5034286;28;20507;-72
2022/01/23 18:42:08;;;;;;;4.20;3.90;;;6.10;99.90;;;;;;5034428;28;20483;-70
2022/01/23 18:44:35;;;;;;;4.90;4.50;;;6.10;99.90;;;;;;5034261;28;20864;-71
2022/01/23 18:47:02;;;;;;;6.13;4.37;;;6.10;99.90;;;;;;5033729;28;20958;-70
2022/01/23 18:49:30;;;;;;;5.63;4.63;;;6.00;99.90;;;;;;5034868;28;20452;-71
2022/01/23 18:52:00;;;;;;;4.90;4.50;;;6.10;99.90;;;;;;5034522;28;20471;-70
2022/01/23 18:54:33;;;;;;;6.20;5.67;;;6.10;99.90;;;;;;5035089;28;20499;-70